Seward, NE

8:43 AM CDT on September 23, 2014 (GMT -0500)
Suhr Lichty Insurance Downtown | Change Station
CLOSE
Current Station
Personal Weather Station
Location: Seward, NE
Elevation: 1493 ft
Nearby Weather Stations

Elev 1493 ft 40.91 °N, 97.10 °W | Updated 9 minutes ago

Rain
Rain
56.5 °F
Feels Like 56.5 °F
N
2.0
Wind Variable Wind from South
Gusts 5.0 mph

Today
High -- | Low -- °F
--% Chance of Precip.
Yesterday
High -- | Low -- °F
Precip. -- in
7:17 AM 7:24 PM
Waning Crescent, 0% visible
Pressure 30.16 in
Visibility 10.0 miles
Clouds Overcast 10000 ft
Dew Point 54 °F
Humidity 91%
Rainfall 0.20 in
Snow Depth Not available.
UV 0 out of 12
Pollen 4.00 out of 12
Air Quality Not available.
Flu Activity Not available.
METAR KLNK 231254Z 21007KT 10SM -RA OVC100 16/12 A3018 RMK AO2 RAB45 SLP213 P0000 T01610117

More Conditions Fewer Conditions

Pressure 30.16 in
Visibility 10.0 miles
Clouds Overcast 10000 ft
Dew Point 54 °F
Humidity 91%
Rainfall 0.20 in
Snow Depth Not available.
UV 0 out of 12
Pollen 4.00 out of 12
Air Quality Not available.
Flu Activity Not available.
METAR KLNK 231254Z 21007KT 10SM -RA OVC100 16/12 A3018 RMK AO2 RAB45 SLP213 P0000 T01610117

More Conditions Fewer Conditions

10-Day Weather Forecast

Almanac

Astronomy

Sep. 23, 2014 Rise Set
Actual Time 7:17 AM CDT 7:24 PM CDT
Civil Twilight 6:49 AM CDT 7:51 PM CDT
Nautical Twilight 6:17 AM CDT 8:23 PM CDT
Astronomical Twilight 5:45 AM CDT 8:55 PM CDT
Moon 6:42 AM CDT 7:03 PM CDT
Length of Visible Light 13h 01m
Length of Day
12h 06m
Tomorrow will be 2m 42s shorter.
Waning Crescent, 0% of the Moon is Illuminated
Today
Waning Crescent
Sep 24
New
Oct 1
First Quarter
Oct 8
Full
Oct 15
Last Quarter

Today's Extremes

State Highs State Lows

Community

WunderPhotos

Upload Photos

1,755,669 photos uploaded!

WunderBlogs® & News

Nearby

Snow Depth

Station Depth Elevation
No new snow has been reported.

Earthquake Activity

City Distance Mag. Time & Date
No recent earthquake activity has been reported nearby.
Minimum magnitude displayed is 2.5.

Coastal Water Temperatures

Place Temperature
No Stations Reporting

Nearby Weather Stations